Time;durP1;ratioP1;P1;durP2;ratioP2;P2;SDS_P1;SDS_P2;PMS_P1;PMS_P2;Temp;Humidity;BMP_temperature;BMP_pressure;BME280_temperature;BME280_humidity;BME280_pressure;Samples;Min_cycle;Max_cycle;Signal;HPM_P1;HPM_P2
2022/01/16 00:04:09;;;;;;;;;;;;;;;0.06;59.17;100866.22;4438493;32;20038;-87
2022/01/16 00:06:34;;;;;;;;;;;;;;;-0.05;59.17;100866.78;4439574;32;19958;-89
2022/01/16 00:08:59;;;;;;;;;;;;;;;-0.02;59.17;100861.72;4425420;32;20181;-88
2022/01/16 00:11:25;;;;;;;;;;;;;;;-0.14;59.17;100845.19;4425467;32;19997;-88
2022/01/16 00:13:51;;;;;;;;;;;;;;;0.02;59.18;100841.38;4438225;32;19985;-87
2022/01/16 00:16:17;;;;;;;;;;;;;;;0.02;59.18;100838.81;4425300;32;20318;-88
2022/01/16 00:19:03;;;;;;;;;;;;;;;-0.10;59.16;100824.84;4438297;32;19993;-88
2022/01/16 00:21:30;;;;;;;;;;;;;;;-0.08;59.16;100850.47;4440373;32;19989;-89
2022/01/16 00:23:55;;;;;;;;;;;;;;;-0.02;59.17;100855.75;4426473;32;19993;-89
2022/01/16 00:26:21;;;;;;;;;;;;;;;-0.11;59.17;100865.72;4439470;32;19985;-91
2022/01/16 00:28:46;;;;;;;;;;;;;;;-0.18;59.16;100885.16;4427158;32;20073;-90
2022/01/16 00:31:12;;;;;;;;;;;;;;;-0.19;59.16;100888.56;4426824;32;19985;-90
2022/01/16 00:33:42;;;;;;;;;;;;;;;0.01;59.17;100844.75;4426761;32;19977;-91
2022/01/16 00:36:07;;;;;;;;;;;;;;;-0.27;59.16;100841.38;4427183;32;20037;-90
2022/01/16 00:38:33;;;;;;;;;;;;;;;-0.33;59.16;100861.69;4428997;32;19981;-92
2022/01/16 00:40:58;;;;;;;;;;;;;;;-0.33;59.15;100865.09;4436908;32;20011;-91
2022/01/16 00:43:23;;;;;;;;;;;;;;;-0.36;59.14;100856.47;4456736;32;20269;-91
2022/01/16 00:45:49;;;;;;;;;;;;;;;-0.44;59.14;100853.69;4456885;32;20000;-92
2022/01/16 00:48:14;;;;;;;;;;;;;;;-0.57;59.15;100818.34;4456825;32;20001;-88
2022/01/16 00:50:39;;;;;;;;;;;;;;;-0.52;59.14;100842.34;4457168;32;20065;-90
2022/01/16 00:53:04;;;;;;;;;;;;;;;-0.58;59.13;100848.97;4456707;32;20021;-90
2022/01/16 00:55:30;;;;;;;;;;;;;;;-0.70;59.13;100841.81;4456915;32;20009;-89
2022/01/16 00:57:55;;;;;;;;;;;;;;;-0.63;59.14;100859.06;4456620;32;20008;-90
2022/01/16 01:00:20;;;;;;;;;;;;;;;-0.68;59.13;100846.16;4456492;32;20045;-90
2022/01/16 01:02:45;;;;;;;;;;;;;;;-0.82;59.12;100828.62;4456433;32;20676;-89
2022/01/16 01:05:11;;;;;;;;;;;;;;;-0.77;59.13;100839.88;4456427;32;19965;-91
2022/01/16 01:07:38;;;;;;;;;;;;;;;-0.98;59.11;100846.03;4456252;32;20329;-90
2022/01/16 01:10:03;;;;;;;;;;;;;;;-0.87;59.12;100853.19;4456476;32;19989;-90
2022/01/16 01:12:40;;;;;;;;;;;;;;;-0.84;59.12;100876.28;4456593;32;20323;-91
2022/01/16 01:15:10;;;;;;;;;;;;;;;-0.87;59.11;100869.41;4456965;32;19973;-91
2022/01/16 01:17:46;;;;;;;;;;;;;;;-0.83;59.12;100883.12;4444892;32;20011;-92
2022/01/16 01:20:17;;;;;;;;;;;;;;;-0.94;59.11;100785.69;4457333;32;20052;-90
2022/01/16 01:22:42;;;;;;;;;;;;;;;-0.96;59.11;100765.19;4444420;32;19981;-91
2022/01/16 01:25:09;;;;;;;;;;;;;;;-0.97;59.11;100789.00;4444559;32;20015;-91
2022/01/16 01:27:34;;;;;;;;;;;;;;;-0.94;59.11;100788.25;4444452;32;20004;-91
2022/01/16 01:30:05;;;;;;;;;;;;;;;-0.83;59.12;100769.00;4457082;32;20031;-90
2022/01/16 01:32:31;;;;;;;;;;;;;;;-0.91;59.12;100785.78;4445510;32;20009;-91
2022/01/16 01:34:57;;;;;;;;;;;;;;;-1.06;59.11;100816.81;4457355;32;19993;-91
2022/01/16 01:37:22;;;;;;;;;;;;;;;-1.02;59.12;100816.09;4457307;32;20374;-90
2022/01/16 01:39:47;;;;;;;;;;;;;;;-0.68;59.13;100852.97;4457183;32;20016;-91
2022/01/16 01:42:14;;;;;;;;;;;;;;;-0.97;59.11;100844.34;4444370;32;19980;-91
2022/01/16 01:52:53;;;;;;;;;;;;;;;-1.13;59.10;100860.03;4470728;32;20038;-91
2022/01/16 01:55:19;;;;;;;;;;;;;;;-1.01;59.12;100829.75;4443973;32;19989;-90
2022/01/16 01:57:44;;;;;;;;;;;;;;;-1.01;59.12;100838.28;4443817;32;20054;-90
2022/01/16 02:00:10;;;;;;;;;;;;;;;-1.06;59.10;100844.94;4443604;32;20040;-89
2022/01/16 02:02:57;;;;;;;;;;;;;;;-1.01;59.12;100840.84;4456463;32;19988;-90
2022/01/16 02:05:22;;;;;;;;;;;;;;;-1.12;59.10;100841.31;4446203;32;20016;-90
2022/01/16 02:07:47;;;;;;;;;;;;;;;-1.09;59.10;100824.41;4443294;32;20306;-90
2022/01/16 02:10:13;;;;;;;;;;;;;;;-1.23;59.11;100829.06;4456584;32;19985;-91
2022/01/16 02:12:42;;;;;;;;;;;;;;;-1.27;59.10;100834.00;4443182;32;20007;-90
2022/01/16 02:15:18;;;;;;;;;;;;;;;-1.44;59.09;100838.56;4443584;32;20045;-91
2022/01/16 02:28:54;;;;;;;;;;;;;;;-1.52;59.08;100859.56;4459543;32;19996;-90
2022/01/16 02:31:23;;;;;;;;;;;;;;;-1.56;59.08;100840.72;4459118;32;19999;-91
2022/01/16 02:36:28;;;;;;;;;;;;;;;-1.34;59.09;100865.28;4457088;32;20025;-92
2022/01/16 02:38:59;;;;;;;;;;;;;;;-1.52;59.08;100862.09;4445337;32;20706;-91
2022/01/16 02:41:25;;;;;;;;;;;;;;;-1.66;59.08;100861.63;4443792;32;20353;-92
2022/01/16 02:43:51;;;;;;;;;;;;;;;-1.74;59.07;100858.81;4444203;32;20046;-92
2022/01/16 02:48:44;;;;;;;;;;;;;;;-1.77;59.07;100866.34;4456272;32;19996;-92
2022/01/16 02:51:09;;;;;;;;;;;;;;;-1.63;59.07;100877.94;4444261;32;20052;-91
2022/01/16 02:53:34;;;;;;;;;;;;;;;-1.75;59.06;100866.41;4444114;32;19989;-92
2022/01/16 02:56:00;;;;;;;;;;;;;;;-1.70;59.07;100858.09;4444544;32;20023;-92
2022/01/16 02:58:25;;;;;;;;;;;;;;;-1.74;59.06;100852.84;4444240;32;20030;-92
2022/01/16 03:00:50;;;;;;;;;;;;;;;-1.80;59.07;100850.06;4443356;32;19980;-92
2022/01/16 03:03:15;;;;;;;;;;;;;;;-1.70;59.07;100849.56;4444561;32;20027;-91
2022/01/16 03:05:41;;;;;;;;;;;;;;;-1.63;59.07;100849.84;4443874;32;20020;-90
2022/01/16 03:08:06;;;;;;;;;;;;;;;-1.59;59.08;100848.28;4443923;32;19992;-91
2022/01/16 03:13:00;;;;;;;;;;;;;;;-1.77;59.07;100858.69;4457382;32;20033;-93
2022/01/16 03:15:25;;;;;;;;;;;;;;;-1.77;59.07;100847.63;4443986;32;20007;-91
2022/01/16 03:23:21;;;;;;;;;;;;;;;-1.80;59.07;100844.97;4458833;32;20064;-91
2022/01/16 03:25:46;;;;;;;;;;;;;;;-1.92;59.06;100836.03;4456568;32;19973;-90
2022/01/16 03:28:11;;;;;;;;;;;;;;;-1.92;59.06;100843.69;4443509;32;20054;-91
2022/01/16 03:30:37;;;;;;;;;;;;;;;-2.05;59.05;100830.47;4443454;32;19984;-90
2022/01/16 03:33:02;;;;;;;;;;;;;;;-1.96;59.06;100844.41;4443657;32;20327;-90
2022/01/16 03:35:27;;;;;;;;;;;;;;;-1.97;59.05;100846.91;4443561;32;20106;-92
2022/01/16 03:37:52;;;;;;;;;;;;;;;-1.98;59.06;100840.94;4456640;32;20003;-93
2022/01/16 03:40:21;;;;;;;;;;;;;;;-2.07;59.05;100837.22;4444350;32;20003;-93
2022/01/16 03:42:46;;;;;;;;;;;;;;;-2.19;59.04;100842.72;4471835;32;19995;-93
2022/01/16 03:45:11;;;;;;;;;;;;;;;-2.10;59.05;100835.41;4444574;32;20037;-94
2022/01/16 03:47:36;;;;;;;;;;;;;;;-2.14;59.04;100838.62;4444508;32;19993;-93
2022/01/16 03:50:02;;;;;;;;;;;;;;;-2.19;59.04;100832.50;4443907;32;19989;-92
2022/01/16 03:52:27;;;;;;;;;;;;;;;-2.08;59.05;100831.22;4444236;32;20297;-92
2022/01/16 03:54:53;;;;;;;;;;;;;;;-2.14;59.04;100831.00;4443903;32;20018;-91
2022/01/16 03:57:18;;;;;;;;;;;;;;;-2.19;59.04;100824.84;4443208;32;19996;-91
2022/01/16 03:59:43;;;;;;;;;;;;;;;-2.17;59.05;100834.28;4444509;32;20004;-94
2022/01/16 04:02:08;;;;;;;;;;;;;;;-2.36;59.03;100821.72;4444557;32;20034;-92
2022/01/16 04:04:33;;;;;;;;;;;;;;;-2.36;59.03;100813.19;4443272;32;20042;-91
2022/01/16 04:07:02;;;;;;;;;;;;;;;-2.45;59.03;100821.34;4455792;32;20018;-90
2022/01/16 04:09:27;;;;;;;;;;;;;;;-2.37;59.03;100819.06;4442481;32;20035;-90
2022/01/16 04:11:55;;;;;;;;;;;;;;;-2.45;59.03;100818.81;4444121;32;20329;-90
2022/01/16 04:15:31;;;;;;;;;;;;;;;-2.49;59.02;100822.06;4444168;32;20020;-89
2022/01/16 04:17:12;;;;;;;;;;;;;;;-2.49;59.02;100822.06;4459227;32;19984;-90
2022/01/16 04:19:38;;;;;;;;;;;;;;;-2.52;59.02;100821.94;4446037;32;20007;-90
2022/01/16 04:22:03;;;;;;;;;;;;;;;-2.40;59.02;100812.19;4444379;32;20305;-91
2022/01/16 04:24:28;;;;;;;;;;;;;;;-2.57;59.02;100829.44;4457501;32;19968;-90
2022/01/16 04:26:54;;;;;;;;;;;;;;;-2.57;59.02;100824.31;4444163;32;20348;-91
2022/01/16 04:29:19;;;;;;;;;;;;;;;-2.54;59.02;100823.56;4444173;32;20004;-91
2022/01/16 04:31:44;;;;;;;;;;;;;;;-2.66;59.01;100823.97;4444602;32;20005;-90
2022/01/16 04:34:09;;;;;;;;;;;;;;;-2.64;59.01;100824.88;4456942;32;19976;-90
2022/01/16 04:36:35;;;;;;;;;;;;;;;-2.58;59.02;100834.47;4443503;32;20245;-90
2022/01/16 04:39:00;;;;;;;;;;;;;;;-2.61;59.02;100829.22;4443763;32;20032;-90
2022/01/16 04:44:11;;;;;;;;;;;;;;;-2.57;59.02;100831.09;4459343;32;19986;-90
2022/01/16 04:46:36;;;;;;;;;;;;;;;-2.57;59.02;100824.31;4444653;32;20007;-91
2022/01/16 04:49:02;;;;;;;;;;;;;;;-2.72;59.01;100830.50;4444189;32;20339;-91
2022/01/16 04:51:27;;;;;;;;;;;;;;;-2.76;59.01;100821.88;4457319;32;20042;-91
2022/01/16 04:53:53;;;;;;;;;;;;;;;-2.62;59.01;100823.25;4444344;32;20254;-92
2022/01/16 04:56:18;;;;;;;;;;;;;;;-2.57;59.02;100816.69;4444698;32;20014;-92
2022/01/16 04:58:43;;;;;;;;;;;;;;;-2.63;59.01;100813.88;4444043;32;20004;-91
2022/01/16 05:01:09;;;;;;;;;;;;;;;-2.64;59.02;100811.28;4444691;32;19992;-92
2022/01/16 05:03:34;;;;;;;;;;;;;;;-2.71;59.01;100810.19;4445470;32;20004;-92
2022/01/16 05:05:59;;;;;;;;;;;;;;;-2.84;59.00;100813.94;4445495;32;20031;-91
2022/01/16 05:08:24;;;;;;;;;;;;;;;-2.89;59.00;100812.87;4445013;32;20007;-90
2022/01/16 05:10:53;;;;;;;;;;;;;;;-2.73;59.01;100806.72;4444904;32;20038;-89
2022/01/16 05:18:34;;;;;;;;;;;;;;;-2.80;59.01;100803.06;4460671;32;20002;-93
2022/01/16 05:21:00;;;;;;;;;;;;;;;-2.89;59.00;100810.34;4445348;32;19993;-92
2022/01/16 05:23:25;;;;;;;;;;;;;;;-2.81;59.01;100808.97;4444641;32;19977;-92
2022/01/16 05:25:51;;;;;;;;;;;;;;;-2.85;59.00;100807.09;4445335;32;20334;-92
2022/01/16 05:28:16;;;;;;;;;;;;;;;-2.84;59.00;100801.22;4444280;32;19993;-90
2022/01/16 05:30:41;;;;;;;;;;;;;;;-2.86;59.01;100800.25;4443771;32;19977;-91
2022/01/16 05:33:07;;;;;;;;;;;;;;;-2.91;58.99;100822.16;4444059;32;20766;-89
2022/01/16 05:35:32;;;;;;;;;;;;;;;-2.91;58.99;100811.94;4443978;32;20311;-90
2022/01/16 05:37:58;;;;;;;;;;;;;;;-2.93;59.00;100815.25;4444053;32;19988;-91
2022/01/16 05:40:23;;;;;;;;;;;;;;;-2.89;59.00;100814.56;4444511;32;20365;-91
2022/01/16 05:42:48;;;;;;;;;;;;;;;-2.85;59.00;100813.88;4444359;32;19981;-89
2022/01/16 05:45:13;;;;;;;;;;;;;;;-2.79;59.00;100821.78;4444386;32;20012;-90
2022/01/16 05:47:39;;;;;;;;;;;;;;;-2.92;58.99;100830.59;4443513;32;19988;-91
2022/01/16 05:50:04;;;;;;;;;;;;;;;-2.93;59.00;100831.41;4443424;32;20041;-87
2022/01/16 05:52:30;;;;;;;;;;;;;;;-2.90;59.01;100836.63;4469410;32;20537;-87
2022/01/16 05:54:55;;;;;;;;;;;;;;;-2.84;59.00;100833.44;4442221;32;20001;-87
2022/01/16 05:57:20;;;;;;;;;;;;;;;-2.87;59.01;100841.81;4455236;32;20065;-88
2022/01/16 05:59:45;;;;;;;;;;;;;;;-2.80;59.01;100840.41;4454991;32;19985;-88
2022/01/16 06:02:11;;;;;;;;;;;;;;;-2.91;58.99;100847.63;4442713;32;20040;-90
2022/01/16 06:04:36;;;;;;;;;;;;;;;-2.93;58.99;100845.81;4442787;32;20346;-89
2022/01/16 06:07:01;;;;;;;;;;;;;;;-2.99;58.99;100849.00;4442722;32;20324;-90
2022/01/16 06:09:26;;;;;;;;;;;;;;;-3.03;59.00;100839.50;4443221;32;20040;-89
2022/01/16 06:11:53;;;;;;;;;;;;;;;-3.10;58.99;100848.56;4443104;32;19988;-89
2022/01/16 06:14:19;;;;;;;;;;;;;;;-3.01;58.99;100848.06;4443562;32;19988;-90
2022/01/16 06:16:44;;;;;;;;;;;;;;;-3.06;58.99;100849.56;4442737;32;20023;-89
2022/01/16 06:19:09;;;;;;;;;;;;;;;-3.01;58.99;100854.84;4442572;32;20021;-89
2022/01/16 06:21:34;;;;;;;;;;;;;;;-2.94;59.00;100854.28;4470025;32;19999;-89
2022/01/16 06:24:00;;;;;;;;;;;;;;;-2.99;59.00;100859.19;4442844;32;20526;-89
2022/01/16 06:26:25;;;;;;;;;;;;;;;-2.97;59.00;100856.69;4442579;32;19995;-88
2022/01/16 06:28:50;;;;;;;;;;;;;;;-2.97;59.00;100860.13;4455823;32;20032;-89
2022/01/16 06:31:15;;;;;;;;;;;;;;;-2.97;59.00;100857.56;4442826;32;20345;-91
2022/01/16 06:33:43;;;;;;;;;;;;;;;-2.97;59.00;100857.56;4455090;32;19985;-89
2022/01/16 06:36:08;;;;;;;;;;;;;;;-3.07;58.99;100858.03;4442537;32;20000;-91
2022/01/16 06:38:34;;;;;;;;;;;;;;;-3.06;58.99;100856.34;4455947;32;20276;-91
2022/01/16 06:41:00;;;;;;;;;;;;;;;-3.00;59.00;100856.59;4442602;32;19987;-88
2022/01/16 06:43:25;;;;;;;;;;;;;;;-3.00;59.00;100862.53;4442050;32;20254;-88
2022/01/16 06:45:50;;;;;;;;;;;;;;;-2.97;59.00;100872.00;4441676;32;20016;-89
2022/01/16 06:48:16;;;;;;;;;;;;;;;-2.82;59.01;100864.97;4454708;32;20008;-89
2022/01/16 06:50:41;;;;;;;;;;;;;;;-2.91;59.00;100862.03;4454425;32;20353;-89
2022/01/16 06:53:06;;;;;;;;;;;;;;;-2.90;59.00;100862.09;4454977;32;20332;-91
2022/01/16 06:55:32;;;;;;;;;;;;;;;-2.89;59.00;100857.87;4442209;32;20015;-91
2022/01/16 06:57:57;;;;;;;;;;;;;;;-2.85;59.00;100859.72;4442278;32;20042;-92
2022/01/16 07:00:22;;;;;;;;;;;;;;;-2.68;59.02;100848.53;4455229;32;20022;-90
2022/01/16 07:02:47;;;;;;;;;;;;;;;-2.66;59.01;100854.53;4454761;32;20008;-90
2022/01/16 07:05:13;;;;;;;;;;;;;;;-2.58;59.02;100857.41;4442341;32;20008;-91
2022/01/16 07:07:38;;;;;;;;;;;;;;;-2.44;59.03;100852.81;4441789;32;19985;-90
2022/01/16 07:10:03;;;;;;;;;;;;;;;-2.57;59.02;100849.81;4441590;32;20000;-89
2022/01/16 07:12:28;;;;;;;;;;;;;;;-2.46;59.03;100855.31;4441717;32;19988;-90
2022/01/16 07:14:54;;;;;;;;;;;;;;;-2.39;59.03;100852.16;4441593;32;20318;-89
2022/01/16 07:17:19;;;;;;;;;;;;;;;-2.31;59.04;100855.91;4441917;32;20008;-89
2022/01/16 07:19:44;;;;;;;;;;;;;;;-2.21;59.04;100857.97;4441700;32;20254;-90
2022/01/16 07:22:09;;;;;;;;;;;;;;;-2.18;59.04;100870.81;4441750;32;20001;-90
2022/01/16 07:24:35;;;;;;;;;;;;;;;-2.31;59.04;100870.31;4441750;32;20265;-91
2022/01/16 07:27:00;;;;;;;;;;;;;;;-2.24;59.04;100880.81;4441899;32;20024;-89
2022/01/16 07:29:29;;;;;;;;;;;;;;;-2.14;59.05;100881.13;4441809;32;19977;-90
2022/01/16 07:31:54;;;;;;;;;;;;;;;-1.95;59.06;100881.88;4441944;32;19997;-89
2022/01/16 07:34:19;;;;;;;;;;;;;;;-2.01;59.06;100875.69;4441872;32;20046;-89
2022/01/16 07:36:45;;;;;;;;;;;;;;;-1.98;59.05;100861.34;4441750;32;19981;-88
2022/01/16 07:39:10;;;;;;;;;;;;;;;-1.90;59.06;100859.06;4441886;32;20049;-88
2022/01/16 07:41:35;;;;;;;;;;;;;;;-1.76;59.06;100867.22;4454179;32;20004;-89
2022/01/16 07:44:01;;;;;;;;;;;;;;;-1.88;59.06;100868.53;4468886;32;20298;-89
2022/01/16 07:46:27;;;;;;;;;;;;;;;-1.71;59.07;100873.34;4457729;32;20330;-90
2022/01/16 07:48:52;;;;;;;;;;;;;;;-1.58;59.08;100878.09;4459495;32;19957;-91
2022/01/16 07:51:18;;;;;;;;;;;;;;;-1.36;59.09;100870.34;4447042;32;20329;-90
2022/01/16 07:53:43;;;;;;;;;;;;;;;-1.39;59.09;100869.38;4459499;32;20008;-91
2022/01/16 07:56:08;;;;;;;;;;;;;;;-1.36;59.09;100870.34;4446580;32;20018;-89
2022/01/16 07:58:33;;;;;;;;;;;;;;;-1.41;59.08;100861.66;4446587;32;20318;-89
2022/01/16 08:00:59;;;;;;;;;;;;;;;-1.38;59.08;100863.44;4446974;32;19996;-89
2022/01/16 08:03:24;;;;;;;;;;;;;;;-1.07;59.11;100858.53;4446622;32;19997;-89
2022/01/16 08:05:49;;;;;;;;;;;;;;;-1.13;59.11;100860.03;4446337;32;20008;-89
2022/01/16 08:08:14;;;;;;;;;;;;;;;-1.12;59.10;100861.75;4458368;32;19989;-91
2022/01/16 08:10:40;;;;;;;;;;;;;;;-1.14;59.11;100850.63;4460228;32;20309;-90
2022/01/16 08:13:05;;;;;;;;;;;;;;;-1.09;59.11;100842.28;4447143;32;20017;-90
2022/01/16 08:15:30;;;;;;;;;;;;;;;-1.05;59.11;100839.00;4447132;32;20043;-91
2022/01/16 08:17:55;;;;;;;;;;;;;;;-0.92;59.12;100840.28;4447617;32;20336;-91
2022/01/16 08:20:21;;;;;;;;;;;;;;;-0.82;59.12;100836.31;4447288;32;20063;-89
2022/01/16 08:22:46;;;;;;;;;;;;;;;-0.81;59.12;100833.81;4446319;32;19996;-90
2022/01/16 08:25:11;;;;;;;;;;;;;;;-0.71;59.13;100848.62;4446099;32;20056;-87
2022/01/16 08:27:37;;;;;;;;;;;;;;;-0.59;59.13;100839.56;4459114;32;20006;-88
2022/01/16 08:30:02;;;;;;;;;;;;;;;-0.55;59.14;100837.16;4445852;32;20019;-87
2022/01/16 08:32:28;;;;;;;;;;;;;;;-0.69;59.13;100825.66;4446008;32;20034;-88
2022/01/16 08:34:53;;;;;;;;;;;;;;;-0.52;59.14;100834.69;4459015;32;19977;-89
2022/01/16 08:37:19;;;;;;;;;;;;;;;-0.60;59.13;100822.50;4445780;32;20005;-90
2022/01/16 08:39:44;;;;;;;;;;;;;;;-0.46;59.14;100809.31;4445934;32;20004;-88
2022/01/16 08:42:09;;;;;;;;;;;;;;;-0.34;59.15;100804.53;4458606;32;20388;-89
2022/01/16 08:44:35;;;;;;;;;;;;;;;-0.12;59.17;100792.34;4445840;32;19993;-89
2022/01/16 08:47:00;;;;;;;;;;;;;;;-0.02;59.17;100786.63;4458509;32;19985;-89
2022/01/16 08:49:25;;;;;;;;;;;;;;;0.07;59.17;100788.59;4445958;32;20019;-89
2022/01/16 08:51:51;;;;;;;;;;;;;;;0.10;59.18;100784.44;4445730;32;20354;-88
2022/01/16 08:54:17;;;;;;;;;;;;;;;0.12;59.18;100777.66;4446443;32;20007;-90
2022/01/16 08:56:42;;;;;;;;;;;;;;;0.24;59.19;100775.44;4445025;32;20322;-87
2022/01/16 08:59:07;;;;;;;;;;;;;;;0.31;59.19;100776.44;4456308;32;20001;-91
2022/01/16 09:01:32;;;;;;;;;;;;;;;0.45;59.20;100774.22;4443708;32;20036;-89
2022/01/16 09:03:58;;;;;;;;;;;;;;;0.39;59.20;100781.75;4444307;32;20005;-91
2022/01/16 09:06:23;;;;;;;;;;;;;;;0.32;59.19;100774.75;4443408;32;20330;-92
2022/01/16 09:08:48;;;;;;;;;;;;;;;0.53;59.20;100768.47;4443629;32;19989;-91
2022/01/16 09:11:13;;;;;;;;;;;;;;;0.60;59.21;100769.50;4443456;32;20029;-91
2022/01/16 09:13:58;;;;;;;;;;;;;;;;;;;;;
2022/01/16 09:16:24;;;;;;;;;;;;;;;0.63;59.20;100764.44;4457728;32;37939;-89
2022/01/16 09:18:49;;;;;;;;;;;;;;;0.87;59.22;100762.44;4443527;32;20019;-90
2022/01/16 09:21:16;;;;;;;;;;;;;;;1.01;59.23;100767.03;4443201;32;19992;-90
2022/01/16 09:23:42;;;;;;;;;;;;;;;1.22;59.24;100767.53;4456557;32;20007;-87
2022/01/16 09:26:12;;;;;;;;;;;;;;;1.26;59.24;100761.63;4442254;32;20035;-89
2022/01/16 09:28:37;;;;;;;;;;;;;;;1.34;59.25;100770.34;4442998;32;20045;-90
2022/01/16 09:31:03;;;;;;;;;;;;;;;1.56;59.26;100761.41;4442832;32;20337;-90
2022/01/16 09:33:28;;;;;;;;;;;;;;;1.56;59.27;100755.41;4442392;32;19980;-90
2022/01/16 09:35:54;;;;;;;;;;;;;;;1.52;59.25;100754.47;4455695;32;20604;-89
2022/01/16 09:38:21;;;;;;;;;;;;;;;1.53;59.25;100751.94;4442583;32;20006;-90
2022/01/16 09:40:46;;;;;;;;;;;;;;;1.63;59.26;100752.13;4442364;32;20709;-88
2022/01/16 09:43:12;;;;;;;;;;;;;;;1.77;59.28;100740.44;4441834;32;19996;-91
2022/01/16 09:45:37;;;;;;;;;;;;;;;1.81;59.27;100739.66;4454937;32;20282;-91
2022/01/16 09:48:02;;;;;;;;;;;;;;;1.72;59.27;100735.22;4454570;32;19989;-89
2022/01/16 09:50:28;;;;;;;;;;;;;;;1.71;59.27;100740.31;4469586;32;19999;-90
2022/01/16 09:52:53;;;;;;;;;;;;;;;1.97;59.28;100733.97;4442255;32;19999;-92
2022/01/16 09:55:18;;;;;;;;;;;;;;;2.02;59.29;100732.34;4456160;32;19969;-92
2022/01/16 09:57:44;;;;;;;;;;;;;;;2.02;59.28;100734.06;4443977;32;20259;-91
2022/01/16 10:00:10;;;;;;;;;;;;;;;1.97;59.28;100728.84;4444222;32;19984;-92
2022/01/16 10:02:35;;;;;;;;;;;;;;;2.03;59.28;100726.38;4443642;32;19985;-92
2022/01/16 10:05:00;;;;;;;;;;;;;;;2.04;59.28;100730.69;4443468;32;20001;-93
2022/01/16 10:07:26;;;;;;;;;;;;;;;1.91;59.28;100723.59;4442984;32;20005;-90
2022/01/16 10:10:14;;;;;;;;;;;;;;;2.13;59.30;100715.44;4442891;32;20253;-90
2022/01/16 10:12:46;;;;;;;;;;;;;;;2.37;59.31;100707.28;4455807;32;19994;-92
2022/01/16 10:15:19;;;;;;;;;;;;;;;2.39;59.30;100700.47;4444231;32;19981;-93
2022/01/16 10:17:44;;;;;;;;;;;;;;;2.41;59.31;100697.94;4444147;32;20341;-92
2022/01/16 10:20:10;;;;;;;;;;;;;;;2.34;59.30;100696.06;4443805;32;20034;-92
2022/01/16 10:22:43;;;;;;;;;;;;;;;2.45;59.31;100695.44;4443251;32;20008;-91
2022/01/16 10:25:08;;;;;;;;;;;;;;;2.70;59.32;100696.66;4456099;32;19980;-89
2022/01/16 10:27:34;;;;;;;;;;;;;;;2.67;59.32;100688.91;4455611;32;20000;-91
2022/01/16 10:30:01;;;;;;;;;;;;;;;2.88;59.34;100690.94;4443318;32;20026;-92
2022/01/16 10:32:28;;;;;;;;;;;;;;;2.99;59.34;100685.91;4443690;32;19985;-94
2022/01/16 10:35:12;;;;;;;;;;;;;;;3.00;59.34;100678.22;4443328;32;19986;-92
2022/01/16 10:37:37;;;;;;;;;;;;;;;3.00;59.34;100680.78;4456069;32;20043;-92
2022/01/16 10:40:06;;;;;;;;;;;;;;;3.08;59.34;100680.91;4456028;32;20036;-91
2022/01/16 10:42:31;;;;;;;;;;;;;;;3.20;59.35;100669.91;4456348;32;20034;-93
2022/01/16 10:44:57;;;;;;;;;;;;;;;3.24;59.36;100675.09;4443351;32;19988;-92
2022/01/16 10:47:26;;;;;;;;;;;;;;;3.33;59.36;100661.50;4456104;32;20001;-94
2022/01/16 10:50:03;;;;;;;;;;;;;;;3.52;59.37;100663.41;4444240;32;19989;-93
2022/01/16 10:52:29;;;;;;;;;;;;;;;3.48;59.37;100661.66;4444192;32;20061;-92
2022/01/16 10:54:54;;;;;;;;;;;;;;;3.39;59.37;100672.72;4443185;32;19976;-93
2022/01/16 10:57:23;;;;;;;;;;;;;;;3.67;59.37;100668.75;4444025;32;20006;-94
2022/01/16 10:59:49;;;;;;;;;;;;;;;3.67;59.38;100673.03;4444124;32;20004;-94
2022/01/16 11:02:14;;;;;;;;;;;;;;;3.80;59.39;100666.31;4444145;32;20798;-93
2022/01/16 11:04:40;;;;;;;;;;;;;;;3.79;59.39;100673.19;4444212;32;20032;-94
2022/01/16 11:07:05;;;;;;;;;;;;;;;3.81;59.39;100666.31;4444694;32;20007;-94
2022/01/16 11:09:31;;;;;;;;;;;;;;;3.79;59.39;100662.00;4444433;32;20077;-94
2022/01/16 11:11:59;;;;;;;;;;;;;;;3.92;59.40;100659.56;4444313;32;19972;-93
2022/01/16 11:14:28;;;;;;;;;;;;;;;3.98;59.39;100653.59;4444645;32;19996;-93
2022/01/16 11:16:56;;;;;;;;;;;;;;;3.99;59.40;100645.88;4443491;32;20083;-94
2022/01/16 11:19:23;;;;;;;;;;;;;;;4.03;59.40;100653.66;4444048;32;20052;-94
2022/01/16 11:21:51;;;;;;;;;;;;;;;4.09;59.40;100644.25;4442462;32;20000;-91
2022/01/16 11:26:42;;;;;;;;;;;;;;;4.30;59.42;100628.97;4455686;32;20027;-91
2022/01/16 11:29:07;;;;;;;;;;;;;;;4.40;59.42;100626.44;4442637;32;20108;-91
2022/01/16 11:31:33;;;;;;;;;;;;;;;4.48;59.42;100624.78;4443205;32;20029;-94
2022/01/16 11:33:58;;;;;;;;;;;;;;;4.49;59.42;100614.47;4444309;32;19977;-93
2022/01/16 11:36:25;;;;;;;;;;;;;;;4.47;59.42;100603.28;4443923;32;20003;-93
2022/01/16 11:38:51;;;;;;;;;;;;;;;4.30;59.42;100600.63;4443452;32;19984;-95
2022/01/16 11:41:18;;;;;;;;;;;;;;;4.19;59.41;100591.06;4443871;32;20055;-94
2022/01/16 11:43:47;;;;;;;;;;;;;;;4.29;59.42;100598.03;4443389;32;19973;-93
2022/01/16 11:46:19;;;;;;;;;;;;;;;4.48;59.42;100589.53;4443302;32;20617;-93
2022/01/16 11:48:50;;;;;;;;;;;;;;;4.37;59.42;100596.37;4443336;32;20345;-94
2022/01/16 11:51:40;;;;;;;;;;;;;;;4.38;59.42;100597.22;4443581;32;19990;-91
2022/01/16 11:54:05;;;;;;;;;;;;;;;4.39;59.42;100594.66;4456186;32;19994;-93
2022/01/16 11:56:42;;;;;;;;;;;;;;;4.40;59.42;100590.38;4455977;32;20016;-91
2022/01/16 11:59:11;;;;;;;;;;;;;;;4.30;59.42;100592.87;4455714;32;19993;-93
2022/01/16 12:01:42;;;;;;;;;;;;;;;4.24;59.41;100589.37;4455699;32;19985;-92
2022/01/16 12:04:27;;;;;;;;;;;;;;;4.28;59.42;100583.44;4455653;32;19987;-93
2022/01/16 12:06:53;;;;;;;;;;;;;;;4.05;59.41;100578.09;4455251;32;19989;-92
2022/01/16 12:09:33;;;;;;;;;;;;;;;4.09;59.41;100576.41;4441694;32;20003;-92
2022/01/16 12:11:58;;;;;;;;;;;;;;;4.32;59.42;100562.84;4455134;32;19953;-91
2022/01/16 12:14:50;;;;;;;;;;;;;;;4.55;59.43;100544.06;4441645;32;19988;-92
2022/01/16 12:17:35;;;;;;;;;;;;;;;4.66;59.44;100542.37;4453132;32;20008;-92
2022/01/16 12:20:13;;;;;;;;;;;;;;;4.63;59.44;100555.25;4455110;32;20009;-91
2022/01/16 12:22:38;;;;;;;;;;;;;;;4.69;59.44;100555.28;4455383;32;19996;-92
2022/01/16 12:25:04;;;;;;;;;;;;;;;4.76;59.44;100548.47;4455563;32;20596;-91
2022/01/16 12:27:39;;;;;;;;;;;;;;;4.80;59.45;100540.72;4442584;32;20095;-91
2022/01/16 12:30:16;;;;;;;;;;;;;;;4.94;59.46;100544.22;4441906;32;20627;-93
2022/01/16 12:32:49;;;;;;;;;;;;;;;5.03;59.46;100547.69;4455687;32;20000;-92
2022/01/16 12:35:14;;;;;;;;;;;;;;;5.07;59.46;100547.69;4444212;32;20037;-94
2022/01/16 12:37:39;;;;;;;;;;;;;;;5.07;59.46;100541.69;4443958;32;20042;-91
2022/01/16 12:40:05;;;;;;;;;;;;;;;5.12;59.46;100547.72;4456933;32;20273;-91
2022/01/16 12:42:30;;;;;;;;;;;;;;;5.14;59.46;100544.28;4443454;32;19965;-94
2022/01/16 12:44:56;;;;;;;;;;;;;;;5.24;59.47;100538.31;4443575;32;20318;-92
2022/01/16 12:47:21;;;;;;;;;;;;;;;5.29;59.47;100543.47;4443859;32;19996;-91
2022/01/16 12:49:47;;;;;;;;;;;;;;;5.15;59.46;100542.56;4444038;32;20009;-91
2022/01/16 12:52:14;;;;;;;;;;;;;;;5.26;59.47;100543.47;4456846;32;20003;-94
2022/01/16 12:54:39;;;;;;;;;;;;;;;5.48;59.48;100546.94;4444610;32;19980;-92
2022/01/16 12:57:04;;;;;;;;;;;;;;;5.45;59.48;100544.38;4444269;32;20340;-92
2022/01/16 12:59:30;;;;;;;;;;;;;;;5.52;59.49;100539.19;4457630;32;20000;-94
2022/01/16 13:01:59;;;;;;;;;;;;;;;5.43;59.48;100535.72;4445022;32;19996;-92
2022/01/16 13:04:26;;;;;;;;;;;;;;;5.42;59.48;100521.09;4445237;32;19985;-95
2022/01/16 13:06:51;;;;;;;;;;;;;;;5.47;59.48;100528.00;4457886;32;20309;-93
2022/01/16 13:09:16;;;;;;;;;;;;;;;5.51;59.48;100515.97;4444741;32;20346;-93
2022/01/16 13:11:42;;;;;;;;;;;;;;;5.50;59.48;100524.56;4444716;32;19996;-93
2022/01/16 13:14:08;;;;;;;;;;;;;;;5.66;59.49;100517.66;4444424;32;19990;-92
2022/01/16 13:16:35;;;;;;;;;;;;;;;5.79;59.50;100512.50;4445006;32;19996;-94
2022/01/16 13:19:12;;;;;;;;;;;;;;;5.75;59.49;100502.19;4444808;32;20008;-93
2022/01/16 13:22:01;;;;;;;;;;;;;;;5.68;59.50;100511.66;4444641;32;19981;-93
2022/01/16 13:24:30;;;;;;;;;;;;;;;5.64;59.49;100512.50;4445322;32;19971;-94